Time;durP1;ratioP1;P1;durP2;ratioP2;P2;SDS_P1;SDS_P2;PMS_P1;PMS_P2;Temp;Humidity;BMP_temperature;BMP_pressure;BME280_temperature;BME280_humidity;BME280_pressure;Samples;Min_cycle;Max_cycle;Signal;HPM_P1;HPM_P2
2022/06/30 00:02:24;;;;;;;;;;;;;;;19.81;nan;99068.91;4905846;29;20464;-70
2022/06/30 00:04:50;;;;;;;;;;;;;;;19.73;nan;99066.25;4868720;29;1040180;-70
2022/06/30 00:07:15;;;;;;;;;;;;;;;19.66;nan;99064.25;4901948;29;20037;-70
2022/06/30 00:09:40;;;;;;;;;;;;;;;19.65;nan;99067.88;4905740;29;20033;-70
2022/06/30 00:12:06;;;;;;;;;;;;;;;19.67;nan;99063.25;4907779;29;20001;-70
2022/06/30 00:14:32;;;;;;;;;;;;;;;19.70;nan;99061.25;4906879;29;20223;-69
2022/06/30 00:16:57;;;;;;;;;;;;;;;19.70;nan;99066.59;4904532;29;19973;-70
2022/06/30 00:19:22;;;;;;;;;;;;;;;19.74;nan;99065.22;4906707;29;20465;-69
2022/06/30 00:21:48;;;;;;;;;;;;;;;19.79;nan;99065.56;4905667;29;20224;-70
2022/06/30 00:24:13;;;;;;;;;;;;;;;19.76;nan;99063.25;4903831;29;20006;-70
2022/06/30 00:26:38;;;;;;;;;;;;;;;19.69;nan;99064.94;4905576;29;19974;-70
2022/06/30 00:29:04;;;;;;;;;;;;;;;19.59;nan;99065.06;4896464;29;20637;-70
2022/06/30 00:31:30;;;;;;;;;;;;;;;19.50;nan;99055.44;4905183;29;19984;-70
2022/06/30 00:33:55;;;;;;;;;;;;;;;19.42;nan;99053.63;4901499;29;20168;-70
2022/06/30 00:36:20;;;;;;;;;;;;;;;19.37;nan;99061.28;4904870;29;20426;-70
2022/06/30 00:38:46;;;;;;;;;;;;;;;19.36;nan;99060.44;4906241;29;19966;-70
2022/06/30 00:41:11;;;;;;;;;;;;;;;19.40;nan;99055.59;4905256;29;19992;-70
2022/06/30 00:43:43;;;;;;;;;;;;;;;19.42;nan;99065.09;4904478;29;19980;-70
2022/06/30 00:46:08;;;;;;;;;;;;;;;19.46;nan;99054.94;4899945;29;19966;-69
2022/06/30 00:48:34;;;;;;;;;;;;;;;19.50;nan;99058.94;4902245;29;20357;-70
2022/06/30 00:50:59;;;;;;;;;;;;;;;19.50;nan;99050.94;4902091;29;19982;-70
2022/06/30 00:53:25;;;;;;;;;;;;;;;19.49;nan;99059.91;4907237;29;19995;-70
2022/06/30 00:55:51;;;;;;;;;;;;;;;19.46;nan;99046.94;4905232;29;20052;-70
2022/06/30 00:58:17;;;;;;;;;;;;;;;19.42;nan;99048.28;4902552;29;20052;-70
2022/06/30 01:00:43;;;;;;;;;;;;;;;19.38;nan;99049.59;4906139;29;20433;-70
2022/06/30 01:03:09;;;;;;;;;;;;;;;19.32;nan;99050.28;4903589;29;20076;-70
2022/06/30 01:05:35;;;;;;;;;;;;;;;19.28;nan;99051.59;4905395;29;19977;-69
2022/06/30 01:08:01;;;;;;;;;;;;;;;19.26;nan;99050.97;4905609;29;19992;-70
2022/06/30 01:13:10;;;;;;;;;;;;;;;19.11;nan;99045.44;4907910;29;19996;-70
2022/06/30 01:15:35;;;;;;;;;;;;;;;18.94;nan;99045.44;4908958;29;20402;-70
2022/06/30 01:18:00;;;;;;;;;;;;;;;18.79;nan;99049.75;4908257;29;19962;-70
2022/06/30 01:20:27;;;;;;;;;;;;;;;18.69;nan;99041.91;4909998;29;19982;-69
2022/06/30 01:22:53;;;;;;;;;;;;;;;18.65;nan;99040.53;4910582;29;20097;-71
2022/06/30 01:25:18;;;;;;;;;;;;;;;18.68;nan;99039.38;4906050;29;20057;-70
2022/06/30 01:27:43;;;;;;;;;;;;;;;18.73;nan;99045.06;4907468;29;20565;-71
2022/06/30 01:30:09;;;;;;;;;;;;;;;18.75;nan;99043.94;4905573;29;19986;-70
2022/06/30 01:32:34;;;;;;;;;;;;;;;18.75;nan;99045.75;4904187;29;20352;-69
2022/06/30 01:35:00;;;;;;;;;;;;;;;18.70;nan;99038.22;4903944;29;19970;-69
2022/06/30 01:37:25;;;;;;;;;;;;;;;18.67;nan;99043.06;4908211;29;19962;-71
2022/06/30 01:39:50;;;;;;;;;;;;;;;18.60;nan;99045.53;4909176;29;20508;-72
2022/06/30 01:42:16;;;;;;;;;;;;;;;18.54;nan;99043.50;4908203;29;20060;-75
2022/06/30 01:44:41;;;;;;;;;;;;;;;18.49;nan;99041.34;4907793;29;20444;-74
2022/06/30 01:47:08;;;;;;;;;;;;;;;18.45;nan;99045.31;4907137;29;20024;-73
2022/06/30 01:49:33;;;;;;;;;;;;;;;18.40;nan;99039.66;4904005;29;20020;-72
2022/06/30 01:51:58;;;;;;;;;;;;;;;18.37;nan;99036.50;4908390;29;20084;-72
2022/06/30 01:54:24;;;;;;;;;;;;;;;18.30;nan;99034.47;4907604;29;20388;-72
2022/06/30 01:56:49;;;;;;;;;;;;;;;18.28;nan;99036.47;4907070;29;20025;-72
2022/06/30 01:59:14;;;;;;;;;;;;;;;18.31;nan;99043.28;4891501;29;19977;-77
2022/06/30 02:01:40;;;;;;;;;;;;;;;18.30;nan;99042.44;4907592;29;19970;-77
2022/06/30 02:06:50;;;;;;;;;;;;;;;18.36;nan;99040.97;4908274;29;20228;-75
2022/06/30 02:09:15;;;;;;;;;;;;;;;18.35;nan;99049.94;4907064;29;20402;-71
2022/06/30 02:11:40;;;;;;;;;;;;;;;18.31;nan;99046.78;4908320;29;19989;-72
2022/06/30 02:14:06;;;;;;;;;;;;;;;18.29;nan;99048.75;4906550;29;19970;-72
2022/06/30 02:16:31;;;;;;;;;;;;;;;18.28;nan;99044.44;4908729;29;19972;-73
2022/06/30 02:18:56;;;;;;;;;;;;;;;18.28;nan;99039.13;4908097;29;19973;-73
2022/06/30 02:21:22;;;;;;;;;;;;;;;18.27;nan;99032.13;4905107;29;19977;-72
2022/06/30 02:23:47;;;;;;;;;;;;;;;18.26;nan;99035.78;4906311;29;19970;-73
2022/06/30 02:26:12;;;;;;;;;;;;;;;18.27;nan;99032.13;4904075;29;20064;-73
2022/06/30 02:28:38;;;;;;;;;;;;;;;18.29;nan;99035.47;4905897;29;19969;-72
2022/06/30 02:31:03;;;;;;;;;;;;;;;18.31;nan;99032.66;4908725;29;19970;-72
2022/06/30 02:33:28;;;;;;;;;;;;;;;18.27;nan;99032.13;4907883;29;20265;-74
2022/06/30 02:35:54;;;;;;;;;;;;;;;18.16;nan;99032.44;4902249;29;19962;-74
2022/06/30 02:38:19;;;;;;;;;;;;;;;18.03;nan;99032.03;4904066;29;19966;-72
2022/06/30 02:40:44;;;;;;;;;;;;;;;17.94;nan;99035.66;4905787;29;20463;-75
2022/06/30 02:43:10;;;;;;;;;;;;;;;;;;4906752;29;19966;-72
2022/06/30 02:45:35;;;;;;;;;;;;;;;;;;4904987;29;19972;-72
2022/06/30 02:48:00;;;;;;;;;;;;;;;;;;4907004;29;19940;-72
2022/06/30 02:50:25;;;;;;;;;;;;;;;;;;4905596;29;20055;-72
2022/06/30 02:52:50;;;;;;;;;;;;;;;;;;4907803;29;20377;-72
2022/06/30 02:55:16;;;;;;;;;;;;;;;;;;4906160;29;19967;-71
2022/06/30 02:58:06;;;;;;;;;;;;;;;;;;4709099;26;20033;-78
2022/06/30 03:00:31;;;;;;;;;;;;;;;;;;4906191;29;20013;-75
2022/06/30 03:02:57;;;;;;;;;;;;;;;;;;4922528;29;20388;-75
2022/06/30 03:05:23;;;;;;;;;;;;;;;17.55;nan;99026.28;4917195;29;19962;-75
2022/06/30 03:07:48;;;;;;;;;;;;;;;17.48;nan;99026.06;4917233;29;19973;-75
2022/06/30 03:10:13;;;;;;;;;;;;;;;17.42;nan;99026.69;4921535;29;19970;-76
2022/06/30 03:12:39;;;;;;;;;;;;;;;;;;4916264;29;20490;-76
2022/06/30 03:15:05;;;;;;;;;;;;;;;;;;4907617;29;20425;-75
2022/06/30 03:17:30;;;;;;;;;;;;;;;;;;4911256;29;20084;-79
2022/06/30 03:19:55;;;;;;;;;;;;;;;;;;4908803;29;19978;-76
2022/06/30 03:22:20;;;;;;;;;;;;;;;;;;4911700;29;19992;-76
2022/06/30 03:24:45;;;;;;;;;;;;;;;;;;4912701;29;19973;-77
2022/06/30 03:27:11;;;;;;;;;;;;;;;;;;4905159;29;19987;-79
2022/06/30 03:29:36;;;;;;;;;;;;;;;;;;4915657;29;19988;-79
2022/06/30 03:32:01;;;;;;;;;;;;;;;;;;4908431;29;19969;-79
2022/06/30 03:34:26;;;;;;;;;;;;;;;;;;4911929;29;19966;-77
2022/06/30 03:36:51;;;;;;;;;;;;;;;;;;4909694;29;20549;-76
2022/06/30 03:39:16;;;;;;;;;;;;;;;;;;4909832;29;20069;-75
2022/06/30 03:41:42;;;;;;;;;;;;;;;;;;4911223;29;20315;-79
2022/06/30 03:44:07;;;;;;;;;;;;;;;;;;4919019;29;20020;-76
2022/06/30 03:46:33;;;;;;;;;;;;;;;;;;4913784;29;20384;-77
2022/06/30 03:48:58;;;;;;;;;;;;;;;;;;4913140;29;19970;-78
2022/06/30 03:51:23;;;;;;;;;;;;;;;;;;4913519;29;19973;-76
2022/06/30 03:53:49;;;;;;;;;;;;;;;;;;4915138;29;19973;-78
2022/06/30 03:56:14;;;;;;;;;;;;;;;;;;4913874;29;19990;-76
2022/06/30 03:58:39;;;;;;;;;;;;;;;;;;4916276;29;20423;-76
2022/06/30 04:01:04;;;;;;;;;;;;;;;;;;4920920;29;19969;-79
2022/06/30 04:03:29;;;;;;;;;;;;;;;17.07;nan;99021.47;4917455;29;19970;-78
2022/06/30 04:05:55;;;;;;;;;;;;;;;17.11;nan;99030.75;4915735;29;19978;-78
2022/06/30 04:08:20;;;;;;;;;;;;;;;;;;4914573;29;19969;-76
2022/06/30 04:10:45;;;;;;;;;;;;;;;;;;4917296;29;19966;-77
2022/06/30 04:13:11;;;;;;;;;;;;;;;;;;4916878;29;19993;-76
2022/06/30 04:15:36;;;;;;;;;;;;;;;;;;4914527;29;19989;-76
2022/06/30 04:18:01;;;;;;;;;;;;;;;;;;4912130;29;19969;-76
2022/06/30 04:20:26;;;;;;;;;;;;;;;;;;4913163;29;19962;-76
2022/06/30 04:22:52;;;;;;;;;;;;;;;;;;4915184;29;19969;-76
2022/06/30 04:25:17;;;;;;;;;;;;;;;;;;4914960;29;19973;-76
2022/06/30 04:27:42;;;;;;;;;;;;;;;;;;4914559;29;20009;-76
2022/06/30 04:30:07;;;;;;;;;;;;;;;;;;4913365;29;19965;-76
2022/06/30 04:32:39;;;;;;;;;;;;;;;16.80;nan;99033.81;4916675;29;19979;-76
2022/06/30 04:35:05;;;;;;;;;;;;;;;16.88;nan;99025.13;4912263;29;20005;-75
2022/06/30 04:37:30;;;;;;;;;;;;;;;;;;4909982;29;20386;-76
2022/06/30 04:42:39;;;;;;;;;;;;;;;;;;4919833;29;19976;-77
2022/06/30 04:45:05;;;;;;;;;;;;;;;;;;4911420;29;20323;-77
2022/06/30 04:47:30;;;;;;;;;;;;;;;;;;4909286;29;19988;-76
2022/06/30 04:49:55;;;;;;;;;;;;;;;17.75;nan;99023.41;4914721;29;19962;-76
2022/06/30 04:52:20;;;;;;;;;;;;;;;18.24;nan;99019.16;4910945;29;20033;-77
2022/06/30 04:54:46;;;;;;;;;;;;;;;18.97;nan;99009.69;4918392;29;19977;-79
2022/06/30 04:57:11;;;;;;;;;;;;;;;19.75;nan;99014.44;4915703;29;19997;-79
2022/06/30 04:59:36;;;;;;;;;;;;;;;20.51;nan;99010.25;4920459;29;20005;-79
2022/06/30 05:02:02;;;;;;;;;;;;;;;21.16;nan;99000.97;4915389;29;20435;-76
2022/06/30 05:04:27;;;;;;;;;;;;;;;21.83;nan;98989.47;4902309;29;19990;-76
2022/06/30 05:06:52;;;;;;;;;;;;;;;22.35;nan;98989.50;4915488;29;20007;-75
2022/06/30 05:09:17;;;;;;;;;;;;;;;22.76;nan;98987.06;4914852;29;20371;-76
2022/06/30 05:11:43;;;;;;;;;;;;;;;23.11;nan;98985.34;4913142;29;19996;-76
2022/06/30 05:14:08;;;;;;;;;;;;;;;23.54;nan;98987.09;4916891;29;20406;-75
2022/06/30 05:16:33;;;;;;;;;;;;;;;23.97;nan;98987.78;4918020;29;20060;-76
2022/06/30 05:18:59;;;;;;;;;;;;;;;24.25;nan;98992.25;4910363;29;20029;-77
2022/06/30 05:21:24;;;;;;;;;;;;;;;24.61;nan;98997.31;4902210;29;19981;-79
2022/06/30 05:26:36;;;;;;;;;;;;;;;25.19;nan;98982.53;4900845;29;20085;-78
2022/06/30 05:29:01;;;;;;;;;;;;;;;25.35;nan;98982.91;4915564;29;19970;-76
2022/06/30 05:31:27;;;;;;;;;;;;;;;25.59;nan;98970.69;4918226;29;20021;-77
2022/06/30 05:33:52;;;;;;;;;;;;;;;25.86;nan;98961.75;4914742;29;20050;-76
2022/06/30 05:36:17;;;;;;;;;;;;;;;26.02;nan;98961.25;4917692;29;20054;-76
2022/06/30 05:38:43;;;;;;;;;;;;;;;25.88;nan;98965.88;4916145;29;19976;-79
2022/06/30 05:41:08;;;;;;;;;;;;;;;25.77;nan;98956.56;4917227;29;20018;-76
2022/06/30 05:43:33;;;;;;;;;;;;;;;25.97;nan;98955.69;4914873;29;20009;-76
2022/06/30 05:45:59;;;;;;;;;;;;;;;26.05;nan;98958.16;4910083;29;19985;-80
2022/06/30 05:48:24;;;;;;;;;;;;;;;26.18;nan;98954.56;4913108;29;19966;-80
2022/06/30 05:50:50;;;;;;;;;;;;;;;26.18;nan;98957.25;4918106;29;20057;-77
2022/06/30 05:53:15;;;;;;;;;;;;;;;26.29;nan;98955.75;4913653;29;19988;-76
2022/06/30 05:55:41;;;;;;;;;;;;;;;26.56;nan;98954.59;4913734;29;20096;-76
2022/06/30 05:58:06;;;;;;;;;;;;;;;26.76;nan;98956.31;4911376;29;19990;-76
2022/06/30 06:00:32;;;;;;;;;;;;;;;26.88;nan;98954.56;4917778;29;20432;-77
2022/06/30 06:02:57;;;;;;;;;;;;;;;27.11;nan;98956.66;4921968;29;20020;-76
2022/06/30 06:05:24;;;;;;;;;;;;;;;27.41;nan;98959.53;4916939;29;20011;-76
2022/06/30 06:07:49;;;;;;;;;;;;;;;27.70;nan;98949.06;4917967;29;19943;-76
2022/06/30 06:10:15;;;;;;;;;;;;;;;27.89;nan;98950.72;4915900;29;20319;-79
2022/06/30 06:12:43;;;;;;;;;;;;;;;28.16;nan;98943.09;4917946;29;19963;-79
2022/06/30 06:15:09;;;;;;;;;;;;;;;28.48;nan;98939.38;4921574;29;20109;-76
2022/06/30 06:17:43;;;;;;;;;;;;;;;28.56;nan;98941.75;4920528;29;19989;-80
2022/06/30 06:20:09;;;;;;;;;;;;;;;28.66;nan;98934.75;4914301;29;19988;-76
2022/06/30 06:22:34;;;;;;;;;;;;;;;28.68;nan;98940.75;4917162;29;19974;-80
2022/06/30 06:25:00;;;;;;;;;;;;;;;28.71;nan;98942.16;4914892;29;20216;-81
2022/06/30 06:27:25;;;;;;;;;;;;;;;28.78;nan;98932.03;4921075;29;19982;-77
2022/06/30 06:29:50;;;;;;;;;;;;;;;29.05;nan;98935.16;4916394;29;19945;-79
2022/06/30 06:32:15;;;;;;;;;;;;;;;29.32;nan;98932.81;4918050;29;19944;-76
2022/06/30 06:34:41;;;;;;;;;;;;;;;29.61;nan;98932.91;4902366;29;19973;-79
2022/06/30 06:37:06;;;;;;;;;;;;;;;29.74;nan;98929.16;4920493;29;20065;-77
2022/06/30 06:39:32;;;;;;;;;;;;;;;29.84;nan;98925.81;4914601;29;19977;-78
2022/06/30 06:41:57;;;;;;;;;;;;;;;29.82;nan;98925.25;4917999;29;19970;-76
2022/06/30 06:44:22;;;;;;;;;;;;;;;29.57;nan;98934.47;4917797;29;19976;-76
2022/06/30 06:46:47;;;;;;;;;;;;;;;29.49;nan;98935.66;4914533;29;20030;-76
2022/06/30 06:49:13;;;;;;;;;;;;;;;29.61;nan;98932.09;4908782;29;19973;-81
2022/06/30 06:51:38;;;;;;;;;;;;;;;29.90;nan;98930.31;4896393;29;20308;-77
2022/06/30 06:54:04;;;;;;;;;;;;;;;30.07;nan;98931.16;4913427;29;19970;-81
2022/06/30 06:56:29;;;;;;;;;;;;;;;30.35;nan;98929.53;4911465;29;20279;-81
2022/06/30 06:58:54;;;;;;;;;;;;;;;30.33;nan;98932.50;4911448;29;20091;-81
2022/06/30 07:01:19;;;;;;;;;;;;;;;30.38;nan;98931.75;4914519;29;19991;-77
2022/06/30 07:03:45;;;;;;;;;;;;;;;30.57;nan;98927.78;4912358;29;19960;-80
2022/06/30 07:06:10;;;;;;;;;;;;;;;30.69;nan;98926.91;4912864;29;19958;-79
2022/06/30 07:08:36;;;;;;;;;;;;;;;30.52;nan;98925.00;4909412;29;20238;-76
2022/06/30 07:11:03;;;;;;;;;;;;;;;30.49;nan;98930.91;4910692;29;19940;-80
2022/06/30 07:13:28;;;;;;;;;;;;;;;30.42;nan;98931.03;4917905;29;19960;-76
2022/06/30 07:15:54;;;;;;;;;;;;;;;30.61;nan;98931.66;4910639;29;20033;-79
2022/06/30 07:18:20;;;;;;;;;;;;;;;30.92;nan;98929.50;4913628;29;19997;-76
2022/06/30 07:20:45;;;;;;;;;;;;;;;31.12;nan;98928.16;4910969;29;20068;-76
2022/06/30 07:23:10;;;;;;;;;;;;;;;31.10;nan;98917.53;4910209;29;19970;-82
2022/06/30 07:25:36;;;;;;;;;;;;;;;31.26;nan;98924.84;4907403;29;19972;-82
2022/06/30 07:28:02;;;;;;;;;;;;;;;31.50;nan;98928.19;4913890;29;19966;-77
2022/06/30 07:30:27;;;;;;;;;;;;;;;31.61;nan;98910.13;4909923;29;20399;-76
2022/06/30 07:32:52;;;;;;;;;;;;;;;31.86;nan;98927.81;4913711;29;20013;-78
2022/06/30 07:35:18;;;;;;;;;;;;;;;31.90;nan;98927.06;4914675;29;19966;-81
2022/06/30 07:37:43;;;;;;;;;;;;;;;31.80;nan;98924.22;4909112;29;20236;-76
2022/06/30 07:40:09;;;;;;;;;;;;;;;32.11;nan;98921.91;4910453;29;19965;-81
2022/06/30 07:42:35;;;;;;;;;;;;;;;32.48;nan;98923.94;4917889;29;20653;-76
2022/06/30 07:45:01;;;;;;;;;;;;;;;32.31;nan;98924.00;4914748;29;19966;-77
2022/06/30 07:47:26;;;;;;;;;;;;;;;32.09;nan;98922.16;4912964;29;20348;-81
2022/06/30 07:49:52;;;;;;;;;;;;;;;31.86;nan;98915.06;4911751;29;20041;-82
2022/06/30 07:52:17;;;;;;;;;;;;;;;31.95;nan;98919.00;4912628;29;20224;-79
2022/06/30 07:54:43;;;;;;;;;;;;;;;32.20;nan;98914.94;4911320;29;20024;-77
2022/06/30 07:57:08;;;;;;;;;;;;;;;32.36;nan;98916.72;4911265;29;20443;-81
2022/06/30 07:59:34;;;;;;;;;;;;;;;32.34;nan;98912.63;4911991;29;19980;-77
2022/06/30 08:02:00;;;;;;;;;;;;;;;32.17;nan;98912.72;4919774;29;20501;-79
2022/06/30 08:04:29;;;;;;;;;;;;;;;32.15;nan;98921.13;4918644;29;19984;-79
2022/06/30 08:06:55;;;;;;;;;;;;;;;31.95;nan;98916.28;4906056;29;19985;-78
2022/06/30 08:09:20;;;;;;;;;;;;;;;31.72;nan;98916.53;4915018;29;19977;-80
2022/06/30 08:11:45;;;;;;;;;;;;;;;31.57;nan;98910.88;4912660;29;19969;-79
2022/06/30 08:14:11;;;;;;;;;;;;;;;31.59;nan;98906.84;4912796;29;20287;-80
2022/06/30 08:16:36;;;;;;;;;;;;;;;31.83;nan;98917.47;4916837;29;20582;-79
2022/06/30 08:19:03;;;;;;;;;;;;;;;31.91;nan;98912.41;4906943;29;19976;-76
2022/06/30 08:21:28;;;;;;;;;;;;;;;31.72;nan;98911.09;4911285;29;19969;-79
2022/06/30 08:23:54;;;;;;;;;;;;;;;31.40;nan;98908.22;4912642;29;19974;-76
2022/06/30 08:26:19;;;;;;;;;;;;;;;31.42;nan;98906.91;4909039;29;20062;-76
2022/06/30 08:28:44;;;;;;;;;;;;;;;31.42;nan;98906.91;4907869;29;19966;-77
2022/06/30 08:31:10;;;;;;;;;;;;;;;31.37;nan;98893.28;4905803;29;20414;-76
2022/06/30 08:33:35;;;;;;;;;;;;;;;31.26;nan;98897.69;4911982;29;20088;-77
2022/06/30 08:36:00;;;;;;;;;;;;;;;31.27;nan;98903.94;4912150;29;20295;-75
2022/06/30 08:38:26;;;;;;;;;;;;;;;31.43;nan;98897.72;4910599;29;20020;-78
2022/06/30 08:43:36;;;;;;;;;;;;;;;31.24;nan;98890.88;4909575;29;19966;-80
2022/06/30 08:46:02;;;;;;;;;;;;;;;31.15;nan;98889.69;4913300;29;20201;-76
2022/06/30 08:48:28;;;;;;;;;;;;;;;31.25;nan;98885.22;4912420;29;19966;-76
2022/06/30 08:50:57;;;;;;;;;;;;;;;31.35;nan;98887.22;4911110;29;20449;-76
2022/06/30 08:53:23;;;;;;;;;;;;;;;31.43;nan;98888.72;4912880;29;19990;-77
2022/06/30 08:55:48;;;;;;;;;;;;;;;31.27;nan;98888.50;4929971;24;19996;-73
2022/06/30 08:58:14;;;;;;;;;;;;;;;31.19;nan;98888.09;4877116;29;20286;-72
2022/06/30 09:00:40;;;;;;;;;;;;;;;31.41;nan;98882.75;4903572;29;20662;-72
2022/06/30 09:03:06;;;;;;;;;;;;;;;31.57;nan;98886.47;4937044;29;20064;-72
2022/06/30 09:05:32;;;;;;;;;;;;;;;31.63;nan;98882.75;4927269;29;19983;-70
2022/06/30 09:07:57;;;;;;;;;;;;;;;31.64;nan;98884.38;4933097;29;19975;-71
2022/06/30 09:10:25;;;;;;;;;;;;;;;31.48;nan;98886.09;4919106;29;19973;-72
2022/06/30 09:13:00;;;;;;;;;;;;;;;30.99;nan;98886.72;4924593;29;20449;-71
2022/06/30 09:15:27;;;;;;;;;;;;;;;30.79;nan;98886.41;4928368;29;20481;-70
2022/06/30 09:17:53;;;;;;;;;;;;;;;30.84;nan;98878.38;4927393;29;19982;-72
2022/06/30 09:20:19;;;;;;;;;;;;;;;31.08;nan;98885.25;4934155;29;20347;-72
2022/06/30 09:22:44;;;;;;;;;;;;;;;31.33;nan;98885.88;4928646;29;19977;-72
2022/06/30 09:25:11;;;;;;;;;;;;;;;31.49;nan;98880.41;4920452;29;20053;-72
2022/06/30 09:27:37;;;;;;;;;;;;;;;31.79;nan;98876.44;4929189;29;19978;-73
2022/06/30 09:30:07;;;;;;;;;;;;;;;32.02;nan;98882.69;4920003;29;19974;-72
2022/06/30 09:32:53;;;;;;;;;;;;;;;32.12;nan;98875.44;4929926;29;20401;-73
2022/06/30 09:35:23;;;;;;;;;;;;;;;31.90;nan;98878.19;4937618;28;19973;-73
2022/06/30 09:38:08;;;;;;;;;;;;;;;31.87;nan;98875.97;4939473;29;20037;-72
2022/06/30 09:40:34;;;;;;;;;;;;;;;31.94;nan;98871.19;4932705;29;19965;-72
2022/06/30 09:43:00;;;;;;;;;;;;;;;32.02;nan;98871.81;4930647;29;19965;-72
2022/06/30 09:45:36;;;;;;;;;;;;;;;32.22;nan;98861.16;4923254;29;20154;-73
2022/06/30 09:48:01;;;;;;;;;;;;;;;32.15;nan;98863.25;4924652;29;20446;-73
2022/06/30 09:50:26;;;;;;;;;;;;;;;31.81;nan;98866.13;4923033;29;19973;-71
2022/06/30 09:53:12;;;;;;;;;;;;;;;31.68;nan;98861.09;4929665;29;20032;-72
2022/06/30 09:55:38;;;;;;;;;;;;;;;31.88;nan;98861.31;4931096;29;19961;-73
2022/06/30 09:58:03;;;;;;;;;;;;;;;32.15;nan;98855.91;4936054;29;20013;-73
2022/06/30 10:00:29;;;;;;;;;;;;;;;32.38;nan;98862.94;4942322;29;20994;-72
2022/06/30 10:03:02;;;;;;;;;;;;;;;32.55;nan;98856.56;4938798;29;19965;-73
2022/06/30 10:05:27;;;;;;;;;;;;;;;32.77;nan;98851.03;4926010;29;20408;-73
2022/06/30 10:07:53;;;;;;;;;;;;;;;33.01;nan;98856.94;4923102;29;20196;-72
2022/06/30 10:10:18;;;;;;;;;;;;;;;33.05;nan;98863.47;4932686;29;20036;-72
2022/06/30 10:12:45;;;;;;;;;;;;;;;33.14;nan;98856.47;4929542;29;19986;-73
2022/06/30 10:15:12;;;;;;;;;;;;;;;33.10;nan;98849.09;4941872;29;20007;-72
2022/06/30 10:17:40;;;;;;;;;;;;;;;33.11;nan;98848.00;4942455;29;20582;-73
2022/06/30 10:20:05;;;;;;;;;;;;;;;33.14;nan;98861.09;4933817;29;20020;-73
2022/06/30 10:22:31;;;;;;;;;;;;;;;33.12;nan;98849.66;4923456;29;20001;-73
2022/06/30 10:24:56;;;;;;;;;;;;;;;32.89;nan;98840.75;4923487;29;19973;-72
2022/06/30 10:27:24;;;;;;;;;;;;;;;32.92;nan;98844.84;4930207;29;20483;-72
2022/06/30 10:29:54;;;;;;;;;;;;;;;33.35;nan;98837.50;4934586;29;19969;-73
2022/06/30 10:32:35;;;;;;;;;;;;;;;33.54;nan;98844.16;4939562;29;19989;-72
2022/06/30 10:35:19;;;;;;;;;;;;;;;33.47;nan;98844.38;4929037;29;20415;-72
2022/06/30 10:37:49;;;;;;;;;;;;;;;33.45;nan;98840.28;4924742;29;20538;-73
2022/06/30 10:40:21;;;;;;;;;;;;;;;33.47;nan;98829.94;4926101;29;19970;-72
2022/06/30 10:42:55;;;;;;;;;;;;;;;33.62;nan;98830.03;4929445;29;20248;-72
2022/06/30 10:45:26;;;;;;;;;;;;;;;33.83;nan;98821.91;4929499;28;20122;-73
2022/06/30 10:48:09;;;;;;;;;;;;;;;33.84;nan;98824.38;4924059;29;19981;-73
2022/06/30 10:50:39;;;;;;;;;;;;;;;33.98;nan;98821.94;4934786;29;19969;-72
2022/06/30 10:53:05;;;;;;;;;;;;;;;33.91;nan;98810.47;4923900;29;19986;-72
2022/06/30 10:55:43;;;;;;;;;;;;;;;33.85;nan;98806.94;4925664;29;20225;-73
2022/06/30 10:58:09;;;;;;;;;;;;;;;33.86;nan;98805.00;4933846;29;19989;-73
2022/06/30 11:00:41;;;;;;;;;;;;;;;33.99;nan;98800.94;4932954;29;19976;-73
2022/06/30 11:03:07;;;;;;;;;;;;;;;34.08;nan;98800.19;4932397;29;19969;-72
2022/06/30 11:05:32;;;;;;;;;;;;;;;33.94;nan;98793.59;4937323;29;20398;-72
2022/06/30 11:08:17;;;;;;;;;;;;;;;33.90;nan;98784.34;4920030;29;19973;-73
2022/06/30 11:10:42;;;;;;;;;;;;;;;33.61;nan;98789.44;4932848;28;20530;-73
2022/06/30 11:13:08;;;;;;;;;;;;;;;33.45;nan;98777.66;4911786;28;20055;-72
2022/06/30 11:15:49;;;;;;;;;;;;;;;33.35;nan;98769.44;4938237;29;19973;-73
2022/06/30 11:18:15;;;;;;;;;;;;;;;33.30;nan;98772.16;4936266;29;20992;-73
2022/06/30 11:20:43;;;;;;;;;;;;;;;33.08;nan;98778.63;4939440;29;19972;-73
2022/06/30 11:23:09;;;;;;;;;;;;;;;32.78;nan;98776.50;4935999;29;20016;-73
2022/06/30 11:28:20;;;;;;;;;;;;;;;32.81;nan;98771.38;4935405;29;20069;-72
2022/06/30 11:30:45;;;;;;;;;;;;;;;32.80;nan;98769.72;4938465;29;20414;-72
2022/06/30 11:33:13;;;;;;;;;;;;;;;32.77;nan;98764.00;4936881;29;20682;-71
2022/06/30 11:35:38;;;;;;;;;;;;;;;32.78;nan;98771.06;4937121;29;20428;-73
2022/06/30 11:38:03;;;;;;;;;;;;;;;32.78;nan;98766.47;4939427;29;20024;-72
2022/06/30 11:40:32;;;;;;;;;;;;;;;32.60;nan;98775.88;4939645;29;19969;-72
2022/06/30 11:42:58;;;;;;;;;;;;;;;32.51;nan;98769.25;4935055;29;19965;-72
2022/06/30 11:45:23;;;;;;;;;;;;;;;32.49;nan;98773.34;4935834;29;19976;-71
2022/06/30 11:47:56;;;;;;;;;;;;;;;32.51;nan;98768.44;4938677;29;20792;-72
2022/06/30 11:50:22;;;;;;;;;;;;;;;32.59;nan;98770.69;4938322;29;19980;-72
2022/06/30 11:52:49;;;;;;;;;;;;;;;32.63;nan;98760.13;4934327;29;19989;-71
2022/06/30 11:55:14;;;;;;;;;;;;;;;32.71;nan;98749.56;4938633;29;20328;-72
2022/06/30 11:57:40;;;;;;;;;;;;;;;32.74;nan;98751.75;4937953;28;19999;-73
2022/06/30 12:00:07;;;;;;;;;;;;;;;32.71;nan;98751.47;4936554;29;19972;-72
2022/06/30 12:02:33;;;;;;;;;;;;;;;32.70;nan;98747.91;4939172;29;19977;-72
2022/06/30 12:04:59;;;;;;;;;;;;;;;32.78;nan;98747.44;4928743;29;19973;-73
2022/06/30 12:07:26;;;;;;;;;;;;;;;32.74;nan;98746.31;4917889;29;19981;-72
2022/06/30 12:09:51;;;;;;;;;;;;;;;32.69;nan;98746.28;4934380;29;20565;-73
2022/06/30 12:12:27;;;;;;;;;;;;;;;32.71;nan;98744.13;4935596;29;19985;-72
2022/06/30 12:14:54;;;;;;;;;;;;;;;32.77;nan;98745.78;4934456;29;19972;-73
2022/06/30 12:17:20;;;;;;;;;;;;;;;32.67;nan;98740.28;4938641;29;19985;-73
2022/06/30 12:19:45;;;;;;;;;;;;;;;32.74;nan;98743.59;4936048;29;19973;-74
2022/06/30 12:22:11;;;;;;;;;;;;;;;32.78;nan;98750.16;4934654;29;19965;-72
2022/06/30 12:24:38;;;;;;;;;;;;;;;32.75;nan;98747.13;4938177;29;19977;-72
2022/06/30 12:27:03;;;;;;;;;;;;;;;32.66;nan;98746.00;4936055;29;19985;-73
2022/06/30 12:29:29;;;;;;;;;;;;;;;32.57;nan;98740.25;4938907;29;20508;-72
2022/06/30 12:32:06;;;;;;;;;;;;;;;32.52;nan;98735.56;4930581;29;20921;-72
2022/06/30 12:34:46;;;;;;;;;;;;;;;32.51;nan;98739.34;4935847;29;19979;-73
2022/06/30 12:37:12;;;;;;;;;;;;;;;32.45;nan;98739.56;4933818;29;20602;-73
2022/06/30 12:39:43;;;;;;;;;;;;;;;32.36;nan;98736.53;4938188;29;19965;-73
2022/06/30 12:42:08;;;;;;;;;;;;;;;32.36;nan;98733.81;4935560;29;19965;-73
2022/06/30 12:44:35;;;;;;;;;;;;;;;32.29;nan;98739.44;4939877;29;20299;-72
2022/06/30 12:47:10;;;;;;;;;;;;;;;32.36;nan;98734.63;4937995;29;19989;-73
2022/06/30 12:49:37;;;;;;;;;;;;;;;32.42;nan;98731.94;4937843;29;20099;-72
2022/06/30 12:52:12;;;;;;;;;;;;;;;32.38;nan;98729.75;4936563;29;19961;-74
2022/06/30 12:54:48;;;;;;;;;;;;;;;32.38;nan;98718.88;4940841;29;19968;-73
2022/06/30 12:57:13;;;;;;;;;;;;;;;32.52;nan;98713.00;4936128;29;20008;-72
2022/06/30 12:59:46;;;;;;;;;;;;;;;32.66;nan;98710.63;4937344;29;19965;-72
2022/06/30 13:02:16;;;;;;;;;;;;;;;32.72;nan;98704.94;4935808;29;20267;-72
2022/06/30 13:04:46;;;;;;;;;;;;;;;32.71;nan;98708.75;4937078;29;20531;-73
2022/06/30 13:07:12;;;;;;;;;;;;;;;32.67;nan;98699.47;4936096;29;20088;-73
2022/06/30 13:09:40;;;;;;;;;;;;;;;32.54;nan;98697.25;4933010;29;20064;-72
2022/06/30 13:12:05;;;;;;;;;;;;;;;32.50;nan;98694.25;4933890;29;20776;-73
2022/06/30 13:14:31;;;;;;;;;;;;;;;32.56;nan;98686.94;4933830;29;19966;-73
2022/06/30 13:16:57;;;;;;;;;;;;;;;32.63;nan;98692.97;4937970;29;20301;-72
2022/06/30 13:19:22;;;;;;;;;;;;;;;32.64;nan;98694.56;4936303;29;20319;-72
2022/06/30 13:21:47;;;;;;;;;;;;;;;32.64;nan;98693.75;4915469;29;19985;-73
2022/06/30 13:24:13;;;;;;;;;;;;;;;32.61;nan;98689.66;4937602;29;19976;-73
2022/06/30 13:26:40;;;;;;;;;;;;;;;32.55;nan;98697.00;4939490;29;19993;-73
2022/06/30 13:29:05;;;;;;;;;;;;;;;32.48;nan;98693.66;4937425;29;19970;-72
2022/06/30 13:31:35;;;;;;;;;;;;;;;32.50;nan;98704.28;4939875;29;20633;-73
2022/06/30 13:34:02;;;;;;;;;;;;;;;32.46;nan;98708.56;4935794;29;20028;-73
2022/06/30 13:36:30;;;;;;;;;;;;;;;32.40;nan;98705.00;4937248;29;19985;-73
2022/06/30 13:38:55;;;;;;;;;;;;;;;32.30;nan;98692.19;4938511;29;19970;-72
2022/06/30 13:41:21;;;;;;;;;;;;;;;32.25;nan;98684.00;4936802;29;19976;-71
2022/06/30 13:43:46;;;;;;;;;;;;;;;32.17;nan;98682.59;4936681;29;19965;-72